createdAt,value
2023-04-24T00:18:20.260Z,19.9
2023-04-24T00:48:20.289Z,19.8
2023-04-24T01:18:20.279Z,19.8
2023-04-24T01:48:20.260Z,19.8
2023-04-24T02:18:20.282Z,19.8
2023-04-24T02:48:20.297Z,19.8
2023-04-24T03:18:20.271Z,19.8
2023-04-24T03:48:20.268Z,19.9
2023-04-24T04:18:20.293Z,20.0
2023-04-24T04:48:20.293Z,20.2
2023-04-24T05:18:20.249Z,20.3
2023-04-24T05:48:20.254Z,20.3
2023-04-24T06:18:20.276Z,20.4
2023-04-24T06:48:20.315Z,20.5
2023-04-24T07:18:20.283Z,20.5
2023-04-24T07:48:20.248Z,20.5
2023-04-24T08:18:20.255Z,20.6
2023-04-24T08:48:20.242Z,20.6
2023-04-24T09:18:20.261Z,20.6
2023-04-24T09:48:20.233Z,20.6
2023-04-24T10:18:20.257Z,20.5
2023-04-24T10:48:20.230Z,20.6
2023-04-24T11:18:20.424Z,20.5
2023-04-24T11:48:20.228Z,20.5
2023-04-24T12:18:20.217Z,20.5
2023-04-24T12:48:20.238Z,20.5
2023-04-24T13:18:20.245Z,20.5
2023-04-24T13:48:20.215Z,20.6
2023-04-24T14:18:20.229Z,20.7
2023-04-24T14:48:20.216Z,20.7
2023-04-24T15:18:19.942Z,20.7
2023-04-24T15:48:20.218Z,20.7
2023-04-24T16:18:20.219Z,20.6
2023-04-24T16:48:20.197Z,20.6
2023-04-24T17:18:20.205Z,20.6
2023-04-24T17:48:20.223Z,20.7
2023-04-24T18:18:20.212Z,20.8
2023-04-24T18:48:20.194Z,20.8
2023-04-24T19:18:20.197Z,20.8
2023-04-24T19:48:20.184Z,20.7
2023-04-24T20:18:20.176Z,20.6
2023-04-24T20:48:20.187Z,20.6
2023-04-24T21:18:20.184Z,20.5
2023-04-24T21:48:20.194Z,20.4
2023-04-24T22:18:20.160Z,20.3
2023-04-24T22:48:20.175Z,20.3
2023-04-24T23:18:20.173Z,20.1
2023-04-24T23:48:20.183Z,20.1
